Impacts METAR Board
IDs:

KMEM - Memphis Intl, TN, US

Updated at: 1700 UTC 23 Jul 2018
Potential Impact None Slight Moderate High
Time 23/05Z 23/06Z 23/07Z 23/08Z 23/09Z 23/10Z 23/11Z 23/12Z 23/13Z 23/14Z 23/15Z 23/16Z 23/17Z
Temp80 79 77 76 73 72 70 73 75 75 79 81 79
Dewpt66 64 64 64 64 64 64 64 65 70 70 72 70
Altim29.86 29.86 29.86 29.86 29.87 29.87 29.89 29.90 29.91 29.92 29.91 29.92 29.92
VIS10 10 10 10 10 10 10 10 10 10 10 10 10
CIG-- -- -- -- -- -- -- -- -- 250 25 34 29
CoverSCTFEWFEWFEWCLRCLRCLRFEWFEWBKNOVCBKNBKN
FltCatVFRVFRVFRVFRVFRVFRVFRVFRVFRVFRMVFRVFRMVFR
WX--------------------------
WDir6030101010360360020360330330350
WSpd7 7 7 7 8 7 8 0 7 5 7 9 7
WGst-- -- -- -- -- -- -- -- -- -- -- -- --
Raw hourly METARs
KMEM 230454Z 06007KT 10SM SCT060 27/19 A2986 RMK AO2 SLP109 T02670189 $
KMEM 230554Z 03007KT 10SM FEW060 26/18 A2986 RMK AO2 SLP107 T02610178 50003 $
KMEM 230654Z 01007KT 10SM FEW060 25/18 A2986 RMK AO2 SLP107 T02500178 $
KMEM 230754Z 01007KT 10SM FEW060 24/18 A2986 RMK AO2 SLP108 T02440178 $
KMEM 230854Z 01008KT 10SM CLR 23/18 A2987 RMK AO2 SLP110 T02280178 53003 $
KMEM 230954Z 36007KT 10SM CLR 22/18 A2987 RMK AO2 SLP111 T02220178 $
KMEM 231054Z 36008KT 10SM CLR 21/18 A2989 RMK AO2 SLP116 T02110178 $
KMEM 231154Z 00000KT 10SM FEW030 FEW250 23/18 A2990 RMK AO2 SLP122 T02280178 53012 $
KMEM 231254Z COR 02007KT 10SM FEW015 FEW250 24/18 A2991 RMK AO2 SLP123 T02390183 $
KMEM 231354Z 36005KT 10SM SCT017 BKN250 24/21 A2992 RMK AO2 SLP126 T02390211 $
KMEM 231454Z 33007KT 10SM BKN025 OVC033 26/21 A2991 RMK AO2 SLP125 T02610211 50003 $
KMEM 231554Z 33009KT 10SM SCT024 BKN034 27/22 A2992 RMK AO2 SLP127 T02720222 $
KMEM 231654Z 35007KT 10SM BKN029 26/21 A2992 RMK AO2 SLP128 T02610211 $



Page loaded:  17:09 UTC  |   10:09 AM Pacific  |   11:09 AM Mountain  |   12:09 PM Central  |   01:09 PM Eastern

 

ADVISORIES

FORECASTS

FORECASTS

OBSERVATIONS

USER TOOLS

ABOUT US